createdAt,value
2019-01-21T00:02:11.348Z,30.63
2019-01-21T00:04:41.173Z,35.37
2019-01-21T00:07:11.081Z,36.17
2019-01-21T00:09:40.929Z,29.00
2019-01-21T00:12:10.930Z,30.17
2019-01-21T00:14:41.134Z,32.93
2019-01-21T00:17:11.010Z,33.43
2019-01-21T00:19:42.187Z,34.13
2019-01-21T00:22:12.116Z,33.60
2019-01-21T00:24:41.951Z,33.70
2019-01-21T00:27:11.988Z,34.03
2019-01-21T00:29:43.061Z,37.73
2019-01-21T00:32:12.926Z,37.60
2019-01-21T00:34:43.205Z,30.00
2019-01-21T00:37:13.015Z,33.47
2019-01-21T00:39:42.881Z,30.63
2019-01-21T00:42:12.977Z,34.27
2019-01-21T00:44:43.139Z,31.43
2019-01-21T00:47:13.120Z,31.40
2019-01-21T00:49:43.073Z,34.87
2019-01-21T00:52:13.017Z,32.40
2019-01-21T00:54:42.791Z,35.90
2019-01-21T00:57:13.071Z,32.53
2019-01-21T00:59:44.693Z,38.23
2019-01-21T01:02:14.751Z,35.10
2019-01-21T01:04:44.572Z,31.73
2019-01-21T01:07:14.812Z,33.20
2019-01-21T01:09:44.762Z,27.00
2019-01-21T01:12:15.451Z,33.03
2019-01-21T01:14:45.441Z,32.70
2019-01-21T01:17:15.329Z,38.33
2019-01-21T01:19:45.230Z,32.33
2019-01-21T01:22:15.485Z,29.43
2019-01-21T01:24:45.577Z,34.27
2019-01-21T01:27:15.887Z,28.87
2019-01-21T01:29:46.032Z,31.47
2019-01-21T01:32:16.437Z,32.80
2019-01-21T01:34:46.561Z,30.03
2019-01-21T01:37:17.122Z,31.43
2019-01-21T01:39:47.006Z,32.80
2019-01-21T01:42:18.716Z,37.73
2019-01-21T01:44:48.575Z,34.30
2019-01-21T01:47:18.685Z,33.93
2019-01-21T01:49:48.910Z,29.23
2019-01-21T01:52:18.933Z,33.60
2019-01-21T01:54:49.201Z,34.37
2019-01-21T01:57:19.480Z,31.93
2019-01-21T01:59:49.840Z,35.47
2019-01-21T02:02:19.846Z,28.27
2019-01-21T02:04:50.403Z,28.90
2019-01-21T02:07:20.112Z,37.20
2019-01-21T02:09:51.426Z,30.57
2019-01-21T02:12:21.344Z,35.63
2019-01-21T02:14:51.365Z,32.13
2019-01-21T02:17:21.326Z,37.37
2019-01-21T02:19:54.746Z,28.77
2019-01-21T02:22:28.133Z,35.80
2019-01-21T02:25:01.312Z,31.60
2019-01-21T02:28:08.435Z,33.10
2019-01-21T02:31:02.227Z,28.30
2019-01-21T02:34:13.738Z,33.80
2019-01-21T02:37:33.251Z,35.10
2019-01-21T02:40:53.685Z,31.27
2019-01-21T02:43:59.032Z,37.33
2019-01-21T02:47:03.113Z,29.47
2019-01-21T02:50:16.055Z,32.47
2019-01-21T02:53:04.447Z,33.07
2019-01-21T02:56:08.230Z,35.53
2019-01-21T02:59:37.089Z,31.87
2019-01-21T03:02:18.070Z,33.80
2019-01-21T03:05:21.953Z,34.90
2019-01-21T03:08:23.852Z,35.63
2019-01-21T03:11:25.307Z,36.77
2019-01-21T03:14:10.795Z,32.00
2019-01-21T03:17:18.747Z,28.77
2019-01-21T03:20:31.377Z,36.10
2019-01-21T03:23:51.569Z,34.27
2019-01-21T03:26:49.547Z,32.33
2019-01-21T03:30:02.277Z,32.07
2019-01-21T03:33:00.218Z,34.60
2019-01-21T03:36:06.109Z,32.93
2019-01-21T03:39:21.988Z,33.20
2019-01-21T03:42:24.769Z,29.43
2019-01-21T03:45:47.423Z,29.67
2019-01-21T03:48:32.195Z,31.53
2019-01-21T03:51:33.047Z,31.13
2019-01-21T03:54:11.174Z,32.43
2019-01-21T03:56:56.252Z,35.93
2019-01-21T04:00:07.237Z,37.30
2019-01-21T04:03:11.015Z,34.80
2019-01-21T04:06:20.871Z,30.70
2019-01-21T04:09:26.795Z,33.00
2019-01-21T04:12:19.408Z,30.97
2019-01-21T04:15:24.829Z,30.00
2019-01-21T04:18:34.244Z,32.10
2019-01-21T04:21:55.470Z,35.60
2019-01-21T04:24:52.288Z,29.60
2019-01-21T04:27:39.507Z,28.93
2019-01-21T04:30:45.561Z,29.73
2019-01-21T04:34:05.845Z,32.40
2019-01-21T04:37:17.978Z,28.40
2019-01-21T04:40:18.522Z,29.37
2019-01-21T04:43:16.151Z,30.37
2019-01-21T04:46:07.985Z,31.60
2019-01-21T04:48:59.821Z,30.07
2019-01-21T04:52:17.990Z,30.13
2019-01-21T04:55:44.218Z,30.83
2019-01-21T04:58:57.859Z,28.10
2019-01-21T05:01:53.605Z,32.23
2019-01-21T05:04:31.849Z,28.27
2019-01-21T05:07:37.115Z,29.03
2019-01-21T05:10:34.190Z,25.77
2019-01-21T05:13:45.272Z,26.83
2019-01-21T05:16:54.961Z,29.50
2019-01-21T05:19:59.737Z,28.27
2019-01-21T05:23:15.963Z,33.40
2019-01-21T05:26:36.127Z,25.63
2019-01-21T05:29:56.438Z,27.53
2019-01-21T05:32:55.309Z,29.90
2019-01-21T05:36:16.027Z,30.23
2019-01-21T05:39:35.477Z,25.90
2019-01-21T05:42:41.979Z,27.83
2019-01-21T05:45:54.247Z,29.47
2019-01-21T05:49:11.829Z,26.13
2019-01-21T05:52:19.225Z,31.23
2019-01-21T05:55:33.482Z,31.13
2019-01-21T05:58:44.186Z,29.93
2019-01-21T06:01:52.125Z,29.93
2019-01-21T06:04:47.125Z,31.03
2019-01-21T06:07:57.715Z,29.97
2019-01-21T06:11:05.820Z,33.13
2019-01-21T06:14:40.680Z,31.90
2019-01-21T06:18:02.282Z,30.70
2019-01-21T06:21:40.257Z,27.03
2019-01-21T06:24:38.277Z,28.47
2019-01-21T06:27:19.871Z,25.73
2019-01-21T06:30:27.849Z,29.27
2019-01-21T06:33:22.239Z,25.67
2019-01-21T06:36:36.624Z,26.43
2019-01-21T06:40:02.168Z,31.47
2019-01-21T06:42:49.382Z,23.80
2019-01-21T06:46:02.863Z,28.57
2019-01-21T06:49:12.936Z,26.57
2019-01-21T06:52:27.158Z,28.33
2019-01-21T06:55:28.537Z,26.07
2019-01-21T06:58:57.746Z,30.13
2019-01-21T07:01:58.594Z,25.97
2019-01-21T07:05:24.511Z,26.97
2019-01-21T07:08:44.924Z,27.13
2019-01-21T07:11:55.988Z,30.13
2019-01-21T07:15:02.417Z,22.43
2019-01-21T07:18:11.284Z,28.27
2019-01-21T07:21:13.259Z,26.77
2019-01-21T07:24:28.849Z,25.27
2019-01-21T07:27:40.137Z,22.27
2019-01-21T07:31:05.953Z,22.27
2019-01-21T07:34:22.566Z,31.50
2019-01-21T07:37:41.041Z,33.40
2019-01-21T07:40:57.226Z,24.63
2019-01-21T07:44:22.421Z,31.87
2019-01-21T07:47:34.823Z,27.73
2019-01-21T07:50:27.293Z,32.63
2019-01-21T07:53:53.430Z,25.97
2019-01-21T07:56:51.696Z,28.23
2019-01-21T07:59:52.537Z,32.97
2019-01-21T08:02:55.627Z,33.83
2019-01-21T08:06:21.854Z,36.03
2019-01-21T08:09:16.626Z,32.97
2019-01-21T08:12:51.885Z,32.37
2019-01-21T08:16:14.376Z,34.40
2019-01-21T08:19:27.604Z,42.17
2019-01-21T08:22:43.466Z,37.77
2019-01-21T08:25:52.498Z,39.53
2019-01-21T08:28:49.419Z,29.63
2019-01-21T08:31:51.705Z,36.73
2019-01-21T08:34:59.634Z,34.83
2019-01-21T08:38:06.689Z,34.13
2019-01-21T08:41:30.185Z,36.60
2019-01-21T08:44:39.400Z,33.93
2019-01-21T08:47:57.008Z,31.87
2019-01-21T08:50:40.816Z,31.27
2019-01-21T08:53:49.094Z,38.23
2019-01-21T08:56:55.265Z,35.80
2019-01-21T09:00:12.278Z,40.63
2019-01-21T09:03:33.574Z,31.33
2019-01-21T09:06:32.387Z,29.47
2019-01-21T09:09:35.388Z,32.43
2019-01-21T09:12:49.706Z,35.17
2019-01-21T09:16:15.863Z,35.10
2019-01-21T09:19:29.804Z,34.70
2019-01-21T09:22:33.294Z,31.90
2019-01-21T09:25:30.378Z,36.93
2019-01-21T09:28:38.847Z,34.73
2019-01-21T09:31:32.429Z,30.53
2019-01-21T09:34:40.773Z,34.17
2019-01-21T09:37:49.688Z,35.60
2019-01-21T09:40:55.427Z,36.33
2019-01-21T09:43:38.862Z,36.80
2019-01-21T09:46:20.709Z,32.90
2019-01-21T09:48:48.797Z,34.20
2019-01-21T09:51:20.005Z,35.37
2019-01-21T09:53:53.921Z,33.67
2019-01-21T09:56:25.019Z,37.40
2019-01-21T09:58:56.748Z,32.10
2019-01-21T10:01:27.898Z,37.53
2019-01-21T10:03:59.376Z,32.10
2019-01-21T10:06:53.786Z,33.97
2019-01-21T10:09:58.501Z,35.63
2019-01-21T10:13:07.736Z,29.97
2019-01-21T10:15:54.256Z,28.43
2019-01-21T10:19:09.852Z,31.93
2019-01-21T10:22:03.486Z,31.03
2019-01-21T10:25:03.900Z,29.63
2019-01-21T10:28:03.145Z,31.00
2019-01-21T10:31:16.236Z,28.80
2019-01-21T10:34:26.792Z,31.53
2019-01-21T10:37:37.721Z,30.20
2019-01-21T10:41:06.994Z,32.10
2019-01-21T10:44:10.956Z,27.40
2019-01-21T10:47:00.913Z,32.27
2019-01-21T10:49:47.998Z,26.13
2019-01-21T10:52:58.907Z,30.10
2019-01-21T10:56:12.026Z,25.60
2019-01-21T10:59:20.098Z,29.97
2019-01-21T11:02:17.512Z,30.27
2019-01-21T11:05:01.189Z,28.37
2019-01-21T11:08:07.951Z,26.77
2019-01-21T11:11:22.752Z,28.17
2019-01-21T11:14:33.540Z,26.90
2019-01-21T11:17:44.259Z,25.03
2019-01-21T11:21:10.560Z,30.80
2019-01-21T11:24:42.606Z,27.20
2019-01-21T11:28:09.317Z,25.80
2019-01-21T11:31:11.106Z,26.33
2019-01-21T11:34:01.826Z,25.70
2019-01-21T11:37:02.839Z,26.63
2019-01-21T11:40:10.861Z,28.67
2019-01-21T11:43:06.585Z,27.63
2019-01-21T11:45:52.923Z,29.10
2019-01-21T11:49:01.311Z,26.10
2019-01-21T11:52:12.356Z,26.00
2019-01-21T11:55:19.276Z,25.73
2019-01-21T11:58:42.276Z,26.73
2019-01-21T12:02:01.059Z,28.17
2019-01-21T12:05:10.964Z,27.03
2019-01-21T12:08:12.193Z,25.40
2019-01-21T12:11:27.320Z,25.23
2019-01-21T12:14:24.529Z,32.70
2019-01-21T12:17:31.587Z,24.37
2019-01-21T12:20:38.435Z,25.57
2019-01-21T12:23:43.790Z,25.43
2019-01-21T12:26:50.597Z,23.87
2019-01-21T12:29:45.446Z,25.90
2019-01-21T12:33:00.400Z,23.83
2019-01-21T12:36:03.876Z,25.07
2019-01-21T12:39:18.029Z,25.27
2019-01-21T12:42:35.540Z,27.33
2019-01-21T12:45:45.123Z,24.20
2019-01-21T12:48:46.160Z,23.23
2019-01-21T12:52:04.620Z,27.37
2019-01-21T12:54:54.199Z,24.87
2019-01-21T12:57:49.155Z,23.77
2019-01-21T13:01:17.979Z,24.27
2019-01-21T13:04:31.831Z,24.37
2019-01-21T13:07:42.218Z,25.70
2019-01-21T13:10:59.609Z,23.57
2019-01-21T13:14:09.309Z,23.17
2019-01-21T13:17:13.190Z,27.93
2019-01-21T13:20:24.029Z,23.77
2019-01-21T13:23:33.472Z,22.87
2019-01-21T13:26:59.510Z,23.20
2019-01-21T13:30:21.297Z,22.57
2019-01-21T13:33:17.648Z,22.80
2019-01-21T13:36:15.517Z,24.43
2019-01-21T13:39:17.977Z,27.40
2019-01-21T13:42:14.370Z,24.00
2019-01-21T13:45:33.725Z,25.13
2019-01-21T13:48:27.608Z,24.20
2019-01-21T13:51:25.702Z,26.17
2019-01-21T13:54:51.175Z,26.68
2019-01-21T13:58:27.752Z,26.33
2019-01-21T14:01:29.947Z,26.20
2019-01-21T14:04:41.806Z,25.03
2019-01-21T14:07:54.325Z,22.77
2019-01-21T14:11:05.154Z,27.77
2019-01-21T14:14:01.347Z,25.07
2019-01-21T14:17:20.949Z,25.90
2019-01-21T14:20:18.361Z,25.20
2019-01-21T14:23:36.844Z,24.53
2019-01-21T14:26:32.037Z,27.17
2019-01-21T14:29:23.924Z,26.90
2019-01-21T14:32:37.983Z,24.67
2019-01-21T14:35:36.202Z,25.97
2019-01-21T14:38:37.035Z,26.23
2019-01-21T14:41:46.390Z,27.33
2019-01-21T14:45:09.866Z,26.67
2019-01-21T14:48:22.215Z,24.20
2019-01-21T14:51:32.927Z,28.90
2019-01-21T14:54:26.609Z,25.17
2019-01-21T14:57:14.023Z,28.17
2019-01-21T15:00:08.871Z,28.93
2019-01-21T15:03:23.920Z,30.73
2019-01-21T15:06:27.149Z,26.63
2019-01-21T15:09:50.168Z,27.60
2019-01-21T15:12:49.393Z,28.57
2019-01-21T15:15:55.657Z,26.77
2019-01-21T15:19:05.407Z,30.10
2019-01-21T15:22:08.129Z,26.43
2019-01-21T15:25:20.152Z,30.13
2019-01-21T15:28:25.535Z,34.70
2019-01-21T15:31:27.023Z,28.60
2019-01-21T15:34:31.081Z,30.10
2019-01-21T15:37:44.294Z,25.87
2019-01-21T15:40:50.671Z,26.63
2019-01-21T15:44:02.003Z,28.47
2019-01-21T15:47:12.899Z,30.50
2019-01-21T15:50:09.091Z,27.07
2019-01-21T15:53:13.317Z,29.87
2019-01-21T15:56:17.785Z,28.40
2019-01-21T15:59:16.048Z,30.17
2019-01-21T16:02:25.151Z,29.27
2019-01-21T16:05:27.004Z,28.30
2019-01-21T16:08:12.174Z,30.13
2019-01-21T16:11:18.378Z,35.73
2019-01-21T16:14:02.769Z,28.30
2019-01-21T16:16:57.478Z,34.07
2019-01-21T16:19:49.058Z,28.43
2019-01-21T16:22:39.128Z,32.23
2019-01-21T16:25:42.895Z,31.77
2019-01-21T16:28:53.862Z,30.73
2019-01-21T16:31:31.543Z,30.90
2019-01-21T16:34:37.277Z,32.33
2019-01-21T16:37:31.449Z,26.77
2019-01-21T16:40:41.382Z,26.97
2019-01-21T16:43:11.562Z,33.20
2019-01-21T16:45:42.148Z,30.53
2019-01-21T16:48:12.393Z,26.77
2019-01-21T16:50:42.932Z,27.30
2019-01-21T16:53:13.027Z,29.13
2019-01-21T16:55:43.321Z,31.57
2019-01-21T16:58:14.574Z,29.17
2019-01-21T17:00:44.749Z,28.97
2019-01-21T17:03:14.922Z,28.03
2019-01-21T17:05:45.464Z,31.60
2019-01-21T17:08:15.785Z,32.97
2019-01-21T17:10:46.273Z,27.93
2019-01-21T17:13:16.151Z,28.47
2019-01-21T17:15:46.168Z,33.03
2019-01-21T17:18:16.283Z,29.50
2019-01-21T17:20:46.616Z,29.40
2019-01-21T17:23:16.818Z,33.50
2019-01-21T17:25:46.934Z,34.83
2019-01-21T17:28:17.368Z,32.83
2019-01-21T17:30:47.855Z,30.90
2019-01-21T17:33:18.134Z,35.10
2019-01-21T17:35:48.558Z,33.60
2019-01-21T17:38:18.488Z,31.03
2019-01-21T17:40:48.892Z,32.43
2019-01-21T17:43:19.162Z,32.87
2019-01-21T17:45:49.365Z,36.43
2019-01-21T17:48:19.442Z,31.27
2019-01-21T17:50:49.952Z,30.60
2019-01-21T17:53:20.340Z,33.33
2019-01-21T17:55:50.371Z,33.27
2019-01-21T17:58:20.244Z,34.63
2019-01-21T18:00:50.096Z,32.67
2019-01-21T18:03:20.279Z,34.03
2019-01-21T18:05:50.521Z,33.03
2019-01-21T18:08:20.738Z,35.37
2019-01-21T18:10:51.682Z,37.77
2019-01-21T18:13:21.846Z,35.00
2019-01-21T18:15:52.969Z,36.77
2019-01-21T18:18:23.253Z,38.80
2019-01-21T18:20:53.649Z,36.37
2019-01-21T18:23:24.072Z,37.50
2019-01-21T18:25:54.408Z,37.33
2019-01-21T18:28:24.657Z,38.73
2019-01-21T18:30:55.092Z,43.53
2019-01-21T18:33:25.381Z,38.17
2019-01-21T18:35:55.764Z,36.70
2019-01-21T18:38:26.938Z,37.20
2019-01-21T18:40:57.554Z,36.27
2019-01-21T18:43:27.741Z,39.73
2019-01-21T18:45:58.152Z,40.53
2019-01-21T18:48:28.635Z,38.03
2019-01-21T18:50:59.157Z,39.50
2019-01-21T18:53:29.612Z,40.30
2019-01-21T18:56:00.062Z,40.20
2019-01-21T18:58:30.404Z,45.53
2019-01-21T19:01:00.917Z,36.90
2019-01-21T19:03:31.161Z,40.40
2019-01-21T19:06:01.430Z,36.60
2019-01-21T19:08:31.808Z,32.70
2019-01-21T19:11:02.204Z,40.63
2019-01-21T19:13:32.471Z,38.13
2019-01-21T19:16:02.763Z,37.83
2019-01-21T19:18:33.024Z,40.40
2019-01-21T19:21:03.380Z,38.50
2019-01-21T19:23:33.731Z,36.53
2019-01-21T19:26:04.823Z,39.87
2019-01-21T19:28:35.255Z,37.07
2019-01-21T19:31:05.948Z,36.57
2019-01-21T19:33:36.217Z,44.70
2019-01-21T19:36:06.887Z,44.43
2019-01-21T19:38:37.277Z,41.13
2019-01-21T19:41:07.756Z,41.00
2019-01-21T19:43:38.130Z,43.17
2019-01-21T19:46:08.600Z,44.63
2019-01-21T19:48:38.993Z,36.37
2019-01-21T19:51:09.442Z,36.40
2019-01-21T19:53:40.243Z,41.47
2019-01-21T19:56:10.831Z,38.40
2019-01-21T19:58:41.198Z,39.20
2019-01-21T20:01:11.529Z,40.30
2019-01-21T20:03:41.997Z,44.37
2019-01-21T20:06:12.809Z,41.03
2019-01-21T20:08:43.121Z,38.47
2019-01-21T20:11:13.467Z,40.27
2019-01-21T20:13:43.717Z,41.17
2019-01-21T20:16:14.233Z,40.10
2019-01-21T20:18:44.567Z,40.90
2019-01-21T20:21:14.966Z,36.50
2019-01-21T20:23:45.257Z,44.57
2019-01-21T20:26:15.628Z,42.80
2019-01-21T20:28:46.016Z,41.47
2019-01-21T20:31:16.686Z,37.73
2019-01-21T20:33:52.079Z,41.27
2019-01-21T20:36:18.302Z,46.37
2019-01-21T20:38:49.482Z,46.83
2019-01-21T20:41:20.030Z,42.93
2019-01-21T20:43:50.404Z,44.40
2019-01-21T20:46:28.309Z,48.47
2019-01-21T20:48:58.652Z,44.10
2019-01-21T20:51:28.937Z,42.83
2019-01-21T20:53:59.269Z,42.37
2019-01-21T20:56:29.672Z,41.00
2019-01-21T20:58:59.969Z,47.23
2019-01-21T21:01:30.294Z,37.57
2019-01-21T21:04:00.601Z,43.40
2019-01-21T21:06:30.561Z,46.50
2019-01-21T21:09:00.689Z,44.43
2019-01-21T21:11:30.489Z,43.10
2019-01-21T21:14:00.637Z,45.97
2019-01-21T21:16:30.725Z,41.93
2019-01-21T21:19:00.513Z,45.17
2019-01-21T21:21:30.523Z,45.63
2019-01-21T21:24:00.553Z,43.90
2019-01-21T21:26:30.293Z,34.77
2019-01-21T21:29:00.077Z,45.87
2019-01-21T21:31:29.997Z,39.73
2019-01-21T21:34:01.386Z,44.37
2019-01-21T21:36:32.830Z,42.17
2019-01-21T21:39:04.010Z,40.47
2019-01-21T21:41:33.991Z,44.17
2019-01-21T21:44:03.901Z,47.43
2019-01-21T21:46:33.734Z,47.03
2019-01-21T21:49:04.356Z,46.03
2019-01-21T21:51:34.238Z,48.73
2019-01-21T21:54:04.658Z,43.10
2019-01-21T21:56:34.525Z,47.87
2019-01-21T21:59:04.664Z,45.20
2019-01-21T22:01:34.573Z,44.83
2019-01-21T22:04:04.702Z,40.43
2019-01-21T22:06:34.586Z,45.80
2019-01-21T22:09:06.010Z,44.80
2019-01-21T22:11:36.010Z,44.40
2019-01-21T22:14:06.609Z,42.53
2019-01-21T22:16:36.577Z,40.07
2019-01-21T22:19:06.532Z,49.47
2019-01-21T22:21:36.802Z,37.77
2019-01-21T22:24:06.656Z,46.23
2019-01-21T22:26:36.887Z,44.20
2019-01-21T22:29:06.757Z,47.97
2019-01-21T22:31:36.844Z,36.07
2019-01-21T22:34:06.752Z,48.67
2019-01-21T22:36:36.849Z,38.27
2019-01-21T22:39:08.737Z,42.13
2019-01-21T22:41:38.628Z,48.30
2019-01-21T22:44:08.541Z,47.07
2019-01-21T22:46:39.469Z,44.90
2019-01-21T22:49:09.545Z,49.67
2019-01-21T22:51:39.314Z,45.27
2019-01-21T22:54:09.284Z,54.33
2019-01-21T22:56:39.175Z,39.63
2019-01-21T22:59:09.469Z,46.00
2019-01-21T23:01:40.904Z,47.07
2019-01-21T23:04:10.976Z,52.43
2019-01-21T23:06:42.825Z,42.37
2019-01-21T23:09:14.442Z,51.83
2019-01-21T23:11:45.899Z,45.20
2019-01-21T23:14:15.827Z,45.60
2019-01-21T23:16:45.707Z,48.87
2019-01-21T23:19:17.527Z,44.37
2019-01-21T23:21:47.437Z,44.50
2019-01-21T23:24:17.873Z,50.70
2019-01-21T23:26:48.069Z,55.90
2019-01-21T23:29:17.868Z,51.00
2019-01-21T23:31:47.697Z,46.67
2019-01-21T23:34:17.727Z,48.43
2019-01-21T23:36:49.620Z,47.80
2019-01-21T23:39:19.691Z,52.33
2019-01-21T23:41:49.729Z,32.17
2019-01-21T23:44:19.745Z,51.30
2019-01-21T23:46:49.551Z,48.57
2019-01-21T23:49:19.619Z,49.60
2019-01-21T23:51:49.551Z,50.50
2019-01-21T23:54:19.782Z,45.80
2019-01-21T23:56:49.662Z,53.13
2019-01-21T23:59:21.671Z,37.13
